Horatio, Arkansas
Current Conditions -  °F | °C
As of 5:36 AM on Tuesday 21 Oct 2014 (Local Time) from KDEQ Reporting Station
Moderate Fog Moderate Fog  
Wind Chill: 53°   Ceiling: 4600
Heat Index: 53°   Visibility: 0.5mi
Dew Point: 53°   Wind: 3mph
Humidity: 100%   Direction: 50°NE
Pressure: 30.05"   Gusts: NA
Location:  33.94°N, 94.36°W
Report Text: KDEQ 211036Z AUTO 05003KT 1/2SM FG SCT002 BKN046 12/12 A3005 RMK AO2 T01170117
Loading
Personal Weather Stations






























Interactive Weather Map
Tropical Storm Tracking
New forecast layout! Learn more

10-Day Weather Forecast

Advertisements
Track Severe Weather on mobile